Time,TemperatureF,DewpointF,PressureIn,WindDirection,WindDirectionDegrees,WindSpeedMPH,WindSpeedGustMPH,Humidity,HourlyPrecipIn,Conditions,Clouds,dailyrainin,SoftwareType,DateUTC
2013-09-13 00:14:00,70.0,68.0,29.96,NE,52,0.0,0.0,93,0.00,,,0.00,,2013-09-13 04:14:00,
2013-09-13 00:25:00,70.0,68.0,29.96,NE,52,0.0,0.0,93,0.00,,,0.00,,2013-09-13 04:25:00,
2013-09-13 00:54:00,70.0,68.0,29.95,NE,52,0.0,0.0,94,0.00,,,0.00,,2013-09-13 04:54:00,
2013-09-13 01:13:00,70.0,68.0,29.95,NE,52,0.0,0.0,94,0.00,,,0.00,,2013-09-13 05:13:00,
2013-09-13 01:22:00,70.0,68.0,29.94,NE,52,0.0,0.0,94,0.00,,,0.00,,2013-09-13 05:22:00,
2013-09-13 01:53:00,70.0,68.0,29.93,NE,52,0.0,0.0,94,0.00,,,0.00,,2013-09-13 05:53:00,
2013-09-13 02:12:00,70.0,68.0,29.93,NE,53,0.0,0.0,94,0.00,,,0.00,,2013-09-13 06:12:00,
2013-09-13 02:22:00,69.0,67.0,29.93,NE,53,0.0,0.0,94,0.00,,,0.00,,2013-09-13 06:22:00,
2013-09-13 02:52:00,69.0,67.0,29.92,NE,53,0.0,0.0,94,0.00,,,0.00,,2013-09-13 06:52:00,
2013-09-13 03:11:00,69.0,67.0,29.92,NE,53,0.0,0.0,94,0.00,,,0.00,,2013-09-13 07:11:00,
2013-09-13 03:22:00,69.0,67.0,29.92,NE,53,0.0,0.0,94,0.00,,,0.00,,2013-09-13 07:22:00,
2013-09-13 03:52:00,69.0,68.0,29.92,NE,53,0.0,0.0,95,0.00,,,0.00,,2013-09-13 07:52:00,
2013-09-13 04:11:00,69.0,67.0,29.92,NE,53,0.0,0.0,94,0.00,,,0.00,,2013-09-13 08:11:00,
2013-09-13 04:22:00,68.0,66.0,29.91,NE,53,0.0,0.0,94,0.00,,,0.00,,2013-09-13 08:22:00,
2013-09-13 04:52:00,68.0,66.0,29.91,NE,53,0.0,0.0,93,0.00,,,0.00,,2013-09-13 08:52:00,
2013-09-13 05:12:00,68.0,66.0,29.91,NE,53,0.0,0.0,93,0.00,,,0.00,,2013-09-13 09:12:00,
2013-09-13 05:21:00,68.0,66.0,29.91,NE,53,0.0,0.0,93,0.00,,,0.00,,2013-09-13 09:21:00,
2013-09-13 05:54:00,67.0,65.0,29.92,NE,53,0.0,0.0,93,0.00,,,0.00,,2013-09-13 09:54:00,
2013-09-13 06:23:00,66.0,64.0,29.93,NE,53,0.0,0.0,94,0.00,,,0.00,,2013-09-13 10:23:00,
2013-09-13 06:53:00,66.0,64.0,29.94,NE,53,0.0,0.0,94,0.00,,,0.00,,2013-09-13 10:53:00,
2013-09-13 07:12:00,65.0,63.0,29.94,NE,53,0.0,0.0,94,0.00,,,0.00,,2013-09-13 11:12:00,
2013-09-13 07:22:00,65.0,63.0,29.95,NE,53,0.0,0.0,94,0.00,,,0.00,,2013-09-13 11:22:00,
2013-09-13 07:52:00,64.0,62.0,29.96,NE,53,0.0,0.0,94,0.00,,,0.00,,2013-09-13 11:52:00,
2013-09-13 08:12:00,64.0,63.0,29.96,NE,53,0.0,0.0,95,0.00,,,0.00,,2013-09-13 12:12:00,
2013-09-13 08:22:00,65.0,64.0,29.95,NE,53,0.0,0.0,95,0.00,,,0.00,,2013-09-13 12:22:00,
2013-09-13 08:52:00,66.0,65.0,29.96,NE,53,0.0,0.0,95,0.00,,,0.00,,2013-09-13 12:52:00,
2013-09-13 09:11:00,66.0,65.0,29.95,NE,53,0.0,0.0,95,0.00,,,0.00,,2013-09-13 13:11:00,
2013-09-13 09:22:00,67.0,66.0,29.95,NE,53,0.0,0.0,95,0.00,,,0.00,,2013-09-13 13:22:00,
2013-09-13 09:52:00,71.0,66.0,29.96,West,263,0.0,1.0,85,0.00,,,0.00,,2013-09-13 13:52:00,
2013-09-13 10:22:00,74.0,66.0,29.96,NNE,27,0.0,0.0,77,0.00,,,0.00,,2013-09-13 14:22:00,
2013-09-13 10:52:00,77.0,66.0,29.96,SSW,205,0.0,2.0,68,0.00,,,0.00,,2013-09-13 14:52:00,
2013-09-13 11:11:00,78.0,64.0,29.96,SW,236,1.0,3.0,63,0.00,,,0.00,,2013-09-13 15:11:00,
2013-09-13 11:22:00,77.0,63.0,29.96,NNE,13,2.0,6.0,63,0.00,,,0.00,,2013-09-13 15:22:00,
2013-09-13 11:53:00,79.0,64.0,29.96,SW,228,2.0,5.0,61,0.00,,,0.00,,2013-09-13 15:53:00,
2013-09-13 12:12:00,79.0,64.0,29.96,NE,55,1.0,5.0,60,0.00,,,0.00,,2013-09-13 16:12:00,
2013-09-13 12:24:00,79.0,64.0,29.96,ENE,60,3.0,5.0,60,0.00,,,0.00,,2013-09-13 16:24:00,
2013-09-13 12:54:00,81.0,63.0,29.95,South,185,0.0,6.0,55,0.00,,,0.00,,2013-09-13 16:54:00,
2013-09-13 13:24:00,82.0,63.0,29.94,WSW,240,1.0,5.0,52,0.00,,,0.00,,2013-09-13 17:24:00,
2013-09-13 13:33:00,82.0,63.0,29.94,WSW,240,1.0,5.0,52,0.00,,,0.00,,2013-09-13 17:33:00,
2013-09-13 13:53:00,82.0,63.0,29.93,ENE,63,0.0,10.0,52,0.00,,,0.00,,2013-09-13 17:53:00,
2013-09-13 14:12:00,82.0,63.0,29.93,WSW,257,0.0,5.0,52,0.00,,,0.00,,2013-09-13 18:12:00,
2013-09-13 14:22:00,83.0,63.0,29.93,ENE,58,3.0,8.0,51,0.00,,,0.00,,2013-09-13 18:22:00,
2013-09-13 14:52:00,83.0,62.0,29.92,SSW,202,0.0,5.0,50,0.00,,,0.00,,2013-09-13 18:52:00,
2013-09-13 15:11:00,84.0,63.0,29.92,East,84,1.0,5.0,50,0.00,,,0.00,,2013-09-13 19:11:00,
2013-09-13 15:22:00,84.0,63.0,29.91,WSW,250,0.0,3.0,49,0.00,,,0.00,,2013-09-13 19:22:00,
2013-09-13 15:52:00,84.0,63.0,29.91,SW,236,0.0,5.0,49,0.00,,,0.00,,2013-09-13 19:52:00,
2013-09-13 16:11:00,84.0,62.0,29.91,East,94,2.0,4.0,48,0.00,,,0.00,,2013-09-13 20:11:00,
2013-09-13 16:52:00,83.0,62.0,29.91,South,179,0.0,2.0,50,0.00,,,0.00,,2013-09-13 20:52:00,
2013-09-13 17:22:00,81.0,61.0,29.91,SW,223,0.0,3.0,50,0.00,,,0.00,,2013-09-13 21:22:00,
2013-09-13 17:54:00,80.0,61.0,29.91,WSW,246,0.0,6.0,52,0.00,,,0.00,,2013-09-13 21:54:00,
2013-09-13 18:13:00,80.0,61.0,29.91,WSW,258,0.0,4.0,53,0.00,,,0.00,,2013-09-13 22:13:00,
2013-09-13 18:24:00,79.0,59.0,29.91,SW,225,0.0,4.0,50,0.00,,,0.00,,2013-09-13 22:24:00,
2013-09-13 18:53:00,77.0,58.0,29.93,SSW,206,0.0,2.0,52,0.00,,,0.00,,2013-09-13 22:53:00,
2013-09-13 19:12:00,77.0,60.0,29.93,South,180,0.0,1.0,55,0.00,,,0.00,,2013-09-13 23:12:00,
2013-09-13 19:22:00,75.0,60.0,29.93,South,175,0.0,0.0,59,0.00,,,0.00,,2013-09-13 23:22:00,
2013-09-13 20:12:00,70.0,61.0,29.95,South,175,0.0,0.0,72,0.00,,,0.00,,2013-09-14 00:12:00,
2013-09-13 20:22:00,69.0,61.0,29.96,South,175,0.0,0.0,75,0.00,,,0.00,,2013-09-14 00:22:00,
2013-09-13 20:42:00,68.0,61.0,29.96,South,175,0.0,0.0,77,0.00,,,0.00,,2013-09-14 00:42:00,
2013-09-13 20:53:00,67.0,61.0,29.97,South,175,0.0,0.0,80,0.00,,,0.00,,2013-09-14 00:53:00,
2013-09-13 21:12:00,67.0,61.0,29.98,South,175,0.0,0.0,80,0.00,,,0.00,,2013-09-14 01:12:00,
2013-09-13 21:22:00,66.0,58.0,29.99,South,175,0.0,0.0,76,0.00,,,0.00,,2013-09-14 01:22:00,
2013-09-13 21:42:00,66.0,59.0,29.99,South,175,0.0,0.0,77,0.00,,,0.00,,2013-09-14 01:42:00,
2013-09-13 21:52:00,65.0,57.0,30.00,South,175,0.0,0.0,76,0.00,,,0.00,,2013-09-14 01:52:00,
2013-09-13 22:12:00,65.0,58.0,30.00,South,175,0.0,0.0,79,0.00,,,0.00,,2013-09-14 02:12:00,
2013-09-13 22:22:00,64.0,57.0,30.01,South,175,0.0,0.0,79,0.00,,,0.00,,2013-09-14 02:22:00,
2013-09-13 22:42:00,64.0,58.0,30.01,South,175,0.0,0.0,80,0.00,,,0.00,,2013-09-14 02:42:00,
2013-09-13 22:52:00,64.0,58.0,30.02,South,175,0.0,0.0,80,0.00,,,0.00,,2013-09-14 02:52:00,
2013-09-13 23:12:00,63.0,57.0,30.02,South,175,0.0,0.0,82,0.00,,,0.00,,2013-09-14 03:12:00,
2013-09-13 23:22:00,63.0,58.0,30.03,South,175,0.0,0.0,83,0.00,,,0.00,,2013-09-14 03:22:00,
2013-09-13 23:55:00,63.0,56.0,30.03,South,175,0.0,0.0,78,0.00,,,0.00,,2013-09-14 03:55:00,